IRA519 OIII-OITR
Flight info
| Callsign | IRA519 |
|---|---|
| Flight time | 0h 54m |
| Altitude | 32000 |
| Route | PAROT G208 ZAJ G781 TUBAR |
| Aircraft | B738/M-SDE2E3FGHIRWXY/LB1 |
Departure
| Time | 2026-04-20 22:43 |
|---|---|
| Airport | Mehrabad International Airport (OIII) |
Arrival
| Time | 2026-04-20 23:37 |
|---|---|
| Airport | Urmia Airport (OITR) |
| Time | Latitude | Longitude | Altitude | Speed | Heading |
|---|---|---|---|---|---|
| 2026-04-20 22:22 | 35.69759 | 51.29472 | 3972 ft | 0 kts | 169° |
| 2026-04-20 22:37 | 35.69778 | 51.29470 | 3973 ft | 4 kts | 198° |
| 2026-04-20 22:37 | 35.69795 | 51.29488 | 3973 ft | 4 kts | 257° |
| 2026-04-20 22:37 | 35.69796 | 51.29510 | 3971 ft | 0 kts | 283° |
| 2026-04-20 22:40 | 35.69798 | 51.29498 | 3973 ft | 5 kts | 283° |
| 2026-04-20 22:41 | 35.69822 | 51.29428 | 3972 ft | 13 kts | 297° |
| 2026-04-20 22:41 | 35.69775 | 51.29331 | 3976 ft | 20 kts | 199° |
| 2026-04-20 22:41 | 35.69614 | 51.29261 | 3966 ft | 27 kts | 199° |
| 2026-04-20 22:41 | 35.69441 | 51.29257 | 3954 ft | 28 kts | 116° |
| 2026-04-20 22:42 | 35.69386 | 51.29479 | 3942 ft | 26 kts | 106° |
| 2026-04-20 22:42 | 35.69302 | 51.29727 | 3930 ft | 49 kts | 113° |
| 2026-04-20 22:42 | 35.69103 | 51.30403 | 3916 ft | 118 kts | 109° |
| 2026-04-20 22:42 | 35.68763 | 51.31600 | 3890 ft | 176 kts | 109° |
| 2026-04-20 22:43 | 35.68315 | 51.33154 | 4217 ft | 202 kts | 109° |
| 2026-04-20 22:43 | 35.67791 | 51.34852 | 4601 ft | 224 kts | 112° |
| 2026-04-20 22:43 | 35.67057 | 51.36620 | 4973 ft | 244 kts | 127° |
| 2026-04-20 22:43 | 35.65667 | 51.37923 | 5235 ft | 263 kts | 163° |
| 2026-04-20 22:44 | 35.63833 | 51.38048 | 5906 ft | 269 kts | 187° |
| 2026-04-20 22:44 | 35.62015 | 51.37513 | 6778 ft | 270 kts | 202° |
| 2026-04-20 22:44 | 35.60415 | 51.36312 | 7582 ft | 273 kts | 223° |
| 2026-04-20 22:44 | 35.59275 | 51.34443 | 8354 ft | 276 kts | 246° |
| 2026-04-20 22:45 | 35.58822 | 51.32192 | 9104 ft | 279 kts | 269° |
| 2026-04-20 22:45 | 35.59117 | 51.29792 | 9842 ft | 283 kts | 290° |
| 2026-04-20 22:45 | 35.60063 | 51.27667 | 10597 ft | 285 kts | 303° |
| 2026-04-20 22:45 | 35.61181 | 51.25637 | 11331 ft | 289 kts | 304° |
| 2026-04-20 22:46 | 35.62319 | 51.23621 | 12039 ft | 292 kts | 305° |
| 2026-04-20 22:46 | 35.63507 | 51.21534 | 12754 ft | 296 kts | 305° |
| 2026-04-20 22:46 | 35.64675 | 51.19481 | 13457 ft | 299 kts | 305° |
| 2026-04-20 22:46 | 35.65871 | 51.17376 | 14138 ft | 303 kts | 305° |
| 2026-04-20 22:47 | 35.67113 | 51.15187 | 14403 ft | 322 kts | 305° |
| 2026-04-20 22:47 | 35.68437 | 51.12851 | 14578 ft | 343 kts | 305° |
| 2026-04-20 22:47 | 35.69839 | 51.10372 | 14729 ft | 363 kts | 304° |
| 2026-04-20 22:47 | 35.71081 | 51.07589 | 14845 ft | 382 kts | 287° |
| 2026-04-20 22:48 | 35.71482 | 51.04313 | 15224 ft | 392 kts | 274° |
| 2026-04-20 22:48 | 35.71918 | 51.00997 | 15742 ft | 397 kts | 290° |
| 2026-04-20 22:48 | 35.73370 | 50.98126 | 16362 ft | 399 kts | 314° |
| 2026-04-20 22:48 | 35.75542 | 50.96011 | 16986 ft | 400 kts | 327° |
| 2026-04-20 22:49 | 35.77868 | 50.94107 | 17518 ft | 404 kts | 323° |
| 2026-04-20 22:49 | 35.79792 | 50.91573 | 17967 ft | 409 kts | 300° |
| 2026-04-20 22:49 | 35.81081 | 50.88450 | 18571 ft | 410 kts | 296° |
| 2026-04-20 22:49 | 35.82370 | 50.85300 | 19080 ft | 414 kts | 297° |
| 2026-04-20 22:50 | 35.83690 | 50.82135 | 19556 ft | 417 kts | 297° |
| 2026-04-20 22:50 | 35.85032 | 50.78949 | 20039 ft | 421 kts | 297° |
| 2026-04-20 22:50 | 35.86392 | 50.75738 | 20522 ft | 423 kts | 297° |
| 2026-04-20 22:50 | 35.87763 | 50.72508 | 20992 ft | 426 kts | 297° |
| 2026-04-20 22:51 | 35.89141 | 50.69261 | 21447 ft | 429 kts | 297° |
| 2026-04-20 22:51 | 35.90526 | 50.65994 | 21883 ft | 432 kts | 297° |
| 2026-04-20 22:51 | 35.91919 | 50.62704 | 22310 ft | 434 kts | 297° |
| 2026-04-20 22:51 | 35.93302 | 50.59434 | 22719 ft | 437 kts | 297° |
| 2026-04-20 22:52 | 35.94710 | 50.56102 | 23121 ft | 439 kts | 297° |
| 2026-04-20 22:52 | 35.96125 | 50.52747 | 23506 ft | 442 kts | 297° |
| 2026-04-20 22:52 | 35.97547 | 50.49373 | 23887 ft | 444 kts | 297° |
| 2026-04-20 22:52 | 35.98976 | 50.45980 | 24253 ft | 447 kts | 297° |
| 2026-04-20 22:53 | 36.00413 | 50.42563 | 24603 ft | 449 kts | 297° |
| 2026-04-20 22:53 | 36.01857 | 50.39127 | 24947 ft | 452 kts | 297° |
| 2026-04-20 22:53 | 36.03304 | 50.35678 | 25285 ft | 454 kts | 297° |
| 2026-04-20 22:53 | 36.04762 | 50.32202 | 25609 ft | 456 kts | 297° |
| 2026-04-20 22:54 | 36.06222 | 50.28716 | 25926 ft | 458 kts | 297° |
| 2026-04-20 22:54 | 36.07689 | 50.25209 | 26231 ft | 460 kts | 297° |
| 2026-04-20 22:54 | 36.09159 | 50.21690 | 26572 ft | 461 kts | 297° |
| 2026-04-20 22:54 | 36.10629 | 50.18169 | 26993 ft | 460 kts | 297° |
| 2026-04-20 22:55 | 36.12092 | 50.14662 | 27440 ft | 458 kts | 297° |
| 2026-04-20 22:55 | 36.13550 | 50.11161 | 27863 ft | 457 kts | 297° |
| 2026-04-20 22:55 | 36.15003 | 50.07670 | 28235 ft | 457 kts | 297° |
| 2026-04-20 22:55 | 36.16457 | 50.04172 | 28605 ft | 457 kts | 297° |
| 2026-04-20 22:56 | 36.17907 | 50.00681 | 29002 ft | 456 kts | 297° |
| 2026-04-20 22:56 | 36.19350 | 49.97200 | 29389 ft | 454 kts | 296° |
| 2026-04-20 22:56 | 36.20729 | 49.93684 | 29762 ft | 454 kts | 295° |
| 2026-04-20 22:56 | 36.22048 | 49.90133 | 30101 ft | 454 kts | 294° |
| 2026-04-20 22:57 | 36.23343 | 49.86572 | 30456 ft | 453 kts | 294° |
| 2026-04-20 22:57 | 36.24630 | 49.83019 | 30805 ft | 452 kts | 294° |
| 2026-04-20 22:57 | 36.25922 | 49.79470 | 31138 ft | 452 kts | 294° |
| 2026-04-20 22:57 | 36.27217 | 49.75929 | 31470 ft | 451 kts | 294° |
| 2026-04-20 22:58 | 36.28516 | 49.72391 | 31791 ft | 451 kts | 294° |
| 2026-04-20 22:58 | 36.29818 | 49.68855 | 32016 ft | 452 kts | 294° |
| 2026-04-20 22:58 | 36.32447 | 49.61716 | 32001 ft | 456 kts | 294° |
| 2026-04-20 22:59 | 36.35061 | 49.54604 | 31988 ft | 449 kts | 294° |
| 2026-04-20 22:59 | 36.37645 | 49.47554 | 32010 ft | 449 kts | 294° |
| 2026-04-20 23:00 | 36.40229 | 49.40486 | 32000 ft | 450 kts | 294° |
| 2026-04-20 23:00 | 36.42771 | 49.33518 | 32000 ft | 443 kts | 294° |
| 2026-04-20 23:01 | 36.44956 | 49.27517 | 31999 ft | 443 kts | 294° |
| 2026-04-20 23:01 | 36.47516 | 49.20471 | 32013 ft | 452 kts | 294° |
| 2026-04-20 23:02 | 36.50120 | 49.13286 | 32004 ft | 458 kts | 294° |
| 2026-04-20 23:02 | 36.52735 | 49.06052 | 32000 ft | 459 kts | 294° |
| 2026-04-20 23:03 | 36.55350 | 48.98804 | 32001 ft | 460 kts | 294° |
| 2026-04-20 23:03 | 36.57962 | 48.91544 | 32007 ft | 460 kts | 294° |
| 2026-04-20 23:04 | 36.60552 | 48.84333 | 32006 ft | 459 kts | 294° |
| 2026-04-20 23:04 | 36.63150 | 48.77082 | 32002 ft | 458 kts | 294° |
| 2026-04-20 23:05 | 36.65755 | 48.69796 | 31999 ft | 457 kts | 294° |
| 2026-04-20 23:05 | 36.68311 | 48.62629 | 32000 ft | 455 kts | 294° |
| 2026-04-20 23:06 | 36.70872 | 48.55429 | 32001 ft | 454 kts | 294° |
| 2026-04-20 23:06 | 36.73421 | 48.48246 | 32001 ft | 453 kts | 294° |
| 2026-04-20 23:07 | 36.75961 | 48.41076 | 32002 ft | 452 kts | 294° |
| 2026-04-20 23:07 | 36.78397 | 48.33865 | 31992 ft | 451 kts | 287° |
| 2026-04-20 23:08 | 36.80025 | 48.26321 | 31998 ft | 450 kts | 284° |
| 2026-04-20 23:08 | 36.81514 | 48.18738 | 32003 ft | 450 kts | 284° |
| 2026-04-20 23:09 | 36.83033 | 48.11167 | 31999 ft | 450 kts | 284° |
| 2026-04-20 23:09 | 36.84584 | 48.03598 | 32001 ft | 450 kts | 284° |
| 2026-04-20 23:10 | 36.85365 | 47.99806 | 31847 ft | 454 kts | 284° |
| 2026-04-20 23:10 | 36.86154 | 47.95975 | 31588 ft | 455 kts | 284° |
| 2026-04-20 23:10 | 36.86939 | 47.92162 | 31335 ft | 452 kts | 284° |
| 2026-04-20 23:10 | 36.87719 | 47.88362 | 31089 ft | 452 kts | 284° |
| 2026-04-20 23:11 | 36.88498 | 47.84559 | 30844 ft | 452 kts | 284° |
| 2026-04-20 23:11 | 36.89276 | 47.80750 | 30592 ft | 452 kts | 284° |
| 2026-04-20 23:11 | 36.90052 | 47.76944 | 30349 ft | 452 kts | 284° |
| 2026-04-20 23:11 | 36.90827 | 47.73139 | 30101 ft | 452 kts | 284° |
| 2026-04-20 23:12 | 36.91602 | 47.69327 | 29854 ft | 453 kts | 284° |
| 2026-04-20 23:12 | 36.92376 | 47.65510 | 29606 ft | 453 kts | 284° |
| 2026-04-20 23:12 | 36.93148 | 47.61695 | 29361 ft | 454 kts | 284° |
| 2026-04-20 23:12 | 36.93922 | 47.57867 | 29109 ft | 455 kts | 284° |
| 2026-04-20 23:13 | 36.94696 | 47.54032 | 28866 ft | 455 kts | 284° |
| 2026-04-20 23:13 | 36.95470 | 47.50189 | 28619 ft | 456 kts | 284° |
| 2026-04-20 23:13 | 36.96243 | 47.46341 | 28370 ft | 457 kts | 284° |
| 2026-04-20 23:13 | 36.97017 | 47.42488 | 28121 ft | 457 kts | 284° |
| 2026-04-20 23:14 | 36.97790 | 47.38628 | 27873 ft | 458 kts | 284° |
| 2026-04-20 23:14 | 36.98563 | 47.34761 | 27623 ft | 459 kts | 284° |
| 2026-04-20 23:14 | 36.99337 | 47.30881 | 27381 ft | 461 kts | 284° |
| 2026-04-20 23:14 | 37.00113 | 47.26987 | 27130 ft | 462 kts | 284° |
| 2026-04-20 23:15 | 37.00879 | 47.23137 | 26885 ft | 463 kts | 284° |
| 2026-04-20 23:15 | 37.01656 | 47.19220 | 26639 ft | 464 kts | 284° |
| 2026-04-20 23:15 | 37.02444 | 47.15243 | 26387 ft | 465 kts | 284° |
| 2026-04-20 23:15 | 37.03212 | 47.11360 | 26143 ft | 466 kts | 284° |
| 2026-04-20 23:16 | 37.03989 | 47.07423 | 25896 ft | 466 kts | 284° |
| 2026-04-20 23:16 | 37.04765 | 47.03483 | 25647 ft | 466 kts | 284° |
| 2026-04-20 23:16 | 37.05538 | 46.99553 | 25394 ft | 465 kts | 284° |
| 2026-04-20 23:16 | 37.06306 | 46.95638 | 25143 ft | 463 kts | 284° |
| 2026-04-20 23:17 | 37.07073 | 46.91723 | 24891 ft | 461 kts | 284° |
| 2026-04-20 23:17 | 37.07834 | 46.87834 | 24635 ft | 459 kts | 284° |
| 2026-04-20 23:17 | 37.08590 | 46.83960 | 24389 ft | 457 kts | 284° |
| 2026-04-20 23:17 | 37.09340 | 46.80107 | 24140 ft | 455 kts | 283° |
| 2026-04-20 23:18 | 37.10087 | 46.76269 | 23890 ft | 453 kts | 283° |
| 2026-04-20 23:18 | 37.10829 | 46.72443 | 23641 ft | 451 kts | 283° |
| 2026-04-20 23:18 | 37.11566 | 46.68638 | 23394 ft | 449 kts | 283° |
| 2026-04-20 23:18 | 37.12299 | 46.64849 | 23140 ft | 447 kts | 283° |
| 2026-04-20 23:19 | 37.13028 | 46.61072 | 22887 ft | 445 kts | 283° |
| 2026-04-20 23:19 | 37.13751 | 46.57315 | 22642 ft | 443 kts | 283° |
| 2026-04-20 23:19 | 37.14472 | 46.53567 | 22402 ft | 441 kts | 283° |
| 2026-04-20 23:19 | 37.15188 | 46.49840 | 22143 ft | 439 kts | 283° |
| 2026-04-20 23:20 | 37.15899 | 46.46128 | 21893 ft | 437 kts | 283° |
| 2026-04-20 23:20 | 37.16599 | 46.42467 | 21629 ft | 426 kts | 283° |
| 2026-04-20 23:20 | 37.17279 | 46.38904 | 21370 ft | 414 kts | 283° |
| 2026-04-20 23:20 | 37.17719 | 46.36596 | 21197 ft | 407 kts | 283° |
| 2026-04-20 23:21 | 37.18368 | 46.33188 | 20939 ft | 397 kts | 283° |
| 2026-04-20 23:21 | 37.19002 | 46.29854 | 20681 ft | 388 kts | 283° |
| 2026-04-20 23:21 | 37.19619 | 46.26598 | 20425 ft | 380 kts | 283° |
| 2026-04-20 23:21 | 37.20225 | 46.23402 | 20171 ft | 373 kts | 283° |
| 2026-04-20 23:22 | 37.20818 | 46.20265 | 19919 ft | 367 kts | 283° |
| 2026-04-20 23:22 | 37.21403 | 46.17167 | 19668 ft | 363 kts | 283° |
| 2026-04-20 23:22 | 37.21985 | 46.14084 | 19425 ft | 364 kts | 283° |
| 2026-04-20 23:22 | 37.22570 | 46.10978 | 19184 ft | 367 kts | 283° |
| 2026-04-20 23:23 | 37.23156 | 46.07860 | 18935 ft | 366 kts | 283° |
| 2026-04-20 23:23 | 37.23737 | 46.04761 | 18682 ft | 363 kts | 283° |
| 2026-04-20 23:23 | 37.24311 | 46.01698 | 18427 ft | 359 kts | 283° |
| 2026-04-20 23:23 | 37.24877 | 45.98676 | 18170 ft | 353 kts | 283° |
| 2026-04-20 23:24 | 37.25433 | 45.95701 | 17912 ft | 348 kts | 283° |
| 2026-04-20 23:24 | 37.25983 | 45.92757 | 17656 ft | 345 kts | 283° |
| 2026-04-20 23:24 | 37.26550 | 45.89848 | 17413 ft | 341 kts | 287° |
| 2026-04-20 23:24 | 37.27529 | 45.87157 | 17156 ft | 338 kts | 302° |
| 2026-04-20 23:25 | 37.28815 | 45.84707 | 16910 ft | 335 kts | 304° |
| 2026-04-20 23:25 | 37.30122 | 45.82283 | 16671 ft | 336 kts | 304° |
| 2026-04-20 23:25 | 37.31868 | 45.79043 | 16343 ft | 340 kts | 304° |
| 2026-04-20 23:25 | 37.32759 | 45.77379 | 16169 ft | 339 kts | 304° |
| 2026-04-20 23:26 | 37.34067 | 45.74921 | 15920 ft | 337 kts | 303° |
| 2026-04-20 23:26 | 37.35362 | 45.72477 | 15664 ft | 335 kts | 303° |
| 2026-04-20 23:26 | 37.36641 | 45.70054 | 15412 ft | 330 kts | 303° |
| 2026-04-20 23:26 | 37.37895 | 45.67671 | 15154 ft | 325 kts | 303° |
| 2026-04-20 23:27 | 37.39130 | 45.65322 | 14900 ft | 320 kts | 303° |
| 2026-04-20 23:27 | 37.40351 | 45.62998 | 14650 ft | 317 kts | 303° |
| 2026-04-20 23:27 | 37.41545 | 45.60722 | 14400 ft | 315 kts | 303° |
| 2026-04-20 23:27 | 37.42747 | 45.58429 | 14151 ft | 313 kts | 303° |
| 2026-04-20 23:28 | 37.43942 | 45.56148 | 13900 ft | 311 kts | 303° |
| 2026-04-20 23:28 | 37.45140 | 45.53859 | 13642 ft | 307 kts | 303° |
| 2026-04-20 23:28 | 37.46290 | 45.51661 | 13392 ft | 303 kts | 303° |
| 2026-04-20 23:28 | 37.47443 | 45.49458 | 13138 ft | 300 kts | 303° |
| 2026-04-20 23:29 | 37.48583 | 45.47277 | 12889 ft | 296 kts | 303° |
| 2026-04-20 23:29 | 37.49711 | 45.45117 | 12632 ft | 293 kts | 303° |
| 2026-04-20 23:29 | 37.50967 | 45.43122 | 12355 ft | 291 kts | 320° |
| 2026-04-20 23:29 | 37.52602 | 45.41662 | 12131 ft | 286 kts | 326° |
| 2026-04-20 23:30 | 37.54261 | 45.40287 | 11871 ft | 284 kts | 327° |
| 2026-04-20 23:30 | 37.55902 | 45.38926 | 11619 ft | 281 kts | 326° |
| 2026-04-20 23:30 | 37.57527 | 45.37568 | 11370 ft | 279 kts | 326° |
| 2026-04-20 23:30 | 37.59135 | 45.36215 | 11118 ft | 277 kts | 326° |
| 2026-04-20 23:31 | 37.60730 | 45.34864 | 10867 ft | 275 kts | 326° |
| 2026-04-20 23:31 | 37.62309 | 45.33523 | 10615 ft | 273 kts | 326° |
| 2026-04-20 23:31 | 37.63876 | 45.32187 | 10363 ft | 271 kts | 326° |
| 2026-04-20 23:31 | 37.65429 | 45.30861 | 10112 ft | 269 kts | 326° |
| 2026-04-20 23:32 | 37.66974 | 45.29541 | 9861 ft | 267 kts | 326° |
| 2026-04-20 23:32 | 37.68506 | 45.28230 | 9610 ft | 265 kts | 326° |
| 2026-04-20 23:32 | 37.70028 | 45.26926 | 9350 ft | 262 kts | 326° |
| 2026-04-20 23:32 | 37.71513 | 45.25654 | 9081 ft | 255 kts | 326° |
| 2026-04-20 23:33 | 37.72961 | 45.24413 | 8807 ft | 249 kts | 326° |
| 2026-04-20 23:33 | 37.74388 | 45.23188 | 8426 ft | 248 kts | 326° |
| 2026-04-20 23:33 | 37.75822 | 45.21958 | 7943 ft | 251 kts | 326° |
| 2026-04-20 23:33 | 37.77277 | 45.20709 | 7417 ft | 255 kts | 326° |
| 2026-04-20 23:34 | 37.78671 | 45.19302 | 6990 ft | 254 kts | 307° |
| 2026-04-20 23:34 | 37.79280 | 45.17305 | 6769 ft | 243 kts | 269° |
| 2026-04-20 23:34 | 37.78804 | 45.15356 | 6612 ft | 230 kts | 231° |
| 2026-04-20 23:34 | 37.77528 | 45.14289 | 6383 ft | 218 kts | 192° |
| 2026-04-20 23:35 | 37.76061 | 45.14005 | 6089 ft | 210 kts | 193° |
| 2026-04-20 23:35 | 37.73604 | 45.12409 | 5568 ft | 188 kts | 210° |
| 2026-04-20 23:35 | 37.72538 | 45.11574 | 5349 ft | 172 kts | 213° |
| 2026-04-20 23:36 | 37.71598 | 45.10800 | 5153 ft | 152 kts | 213° |
| 2026-04-20 23:36 | 37.70734 | 45.10089 | 4925 ft | 144 kts | 213° |
| 2026-04-20 23:36 | 37.69899 | 45.09404 | 4747 ft | 144 kts | 213° |
| 2026-04-20 23:36 | 37.69061 | 45.08715 | 4558 ft | 144 kts | 213° |
| 2026-04-20 23:37 | 37.68236 | 45.08037 | 4358 ft | 143 kts | 213° |
| 2026-04-20 23:37 | 37.67450 | 45.07391 | 4336 ft | 117 kts | 213° |
| 2026-04-20 23:37 | 37.66937 | 45.06969 | 4337 ft | 56 kts | 213° |
| 2026-04-20 23:37 | 37.66677 | 45.06755 | 4336 ft | 33 kts | 213° |
| 2026-04-20 23:38 | 37.66493 | 45.06603 | 4336 ft | 30 kts | 213° |
| 2026-04-20 23:38 | 37.66338 | 45.06446 | 4337 ft | 28 kts | 253° |
| 2026-04-20 23:38 | 37.66327 | 45.06226 | 4336 ft | 19 kts | 224° |
| 2026-04-20 23:38 | 37.66229 | 45.06137 | 4335 ft | 15 kts | 223° |
| 2026-04-20 23:39 | 37.66234 | 45.06027 | 4333 ft | 9 kts | 298° |
| 2026-04-20 23:39 | 37.66242 | 45.06009 | 4335 ft | 0 kts | 298° |